Time;durP1;ratioP1;P1;durP2;ratioP2;P2;SDS_P1;SDS_P2;PMS_P1;PMS_P2;Temp;Humidity;BMP_temperature;BMP_pressure;BME280_temperature;BME280_humidity;BME280_pressure;Samples;Min_cycle;Max_cycle;Signal;HPM_P1;HPM_P2
2022/03/12 00:00:07;;;;;;;13.82;8.40;;;8.00;46.40;;;;;;6181853;23;20350;-76
2022/03/12 00:02:34;;;;;;;13.45;8.38;;;8.00;46.20;;;;;;6182390;23;20024;-76
2022/03/12 00:05:01;;;;;;;13.23;8.48;;;8.00;46.30;;;;;;6181852;23;20016;-76
2022/03/12 00:07:27;;;;;;;;;;;8.00;46.40;;;;;;6183634;23;20040;-76
2022/03/12 00:09:54;;;;;;;12.85;8.50;;;7.90;46.20;;;;;;6181440;23;20295;-76
2022/03/12 00:12:20;;;;;;;12.23;9.07;;;7.90;46.40;;;;;;6182341;23;20012;-76
2022/03/12 00:14:48;;;;;;;12.52;8.77;;;7.90;46.30;;;;;;6209777;23;20087;-76
2022/03/12 00:17:16;;;;;;;12.93;8.85;;;7.90;46.40;;;;;;6183410;23;20028;-76
2022/03/12 00:19:42;;;;;;;;;;;7.90;46.20;;;;;;6209015;23;20668;-76
2022/03/12 00:22:09;;;;;;;13.00;8.85;;;7.80;46.40;;;;;;6210173;23;19919;-76
2022/03/12 00:24:38;;;;;;;12.00;8.20;;;7.80;46.40;;;;;;6209485;23;20017;-75
2022/03/12 00:27:06;;;;;;;11.80;8.23;;;7.80;46.30;;;;;;6182204;23;20021;-76
2022/03/12 00:29:32;;;;;;;14.88;9.02;;;7.80;46.40;;;;;;6208978;23;20024;-76
2022/03/12 00:31:57;;;;;;;11.10;8.63;;;7.80;46.40;;;;;;6208254;23;20143;-76
2022/03/12 00:34:23;;;;;;;11.18;8.70;;;7.80;46.20;;;;;;6210320;23;20025;-76
2022/03/12 00:36:49;;;;;;;11.73;8.73;;;7.80;46.30;;;;;;6184492;23;20059;-75
2022/03/12 00:39:15;;;;;;;11.45;9.18;;;7.80;46.30;;;;;;6211887;23;20012;-76
2022/03/12 00:41:44;;;;;;;13.23;8.53;;;7.80;46.50;;;;;;6210994;23;20445;-76
2022/03/12 00:44:17;;;;;;;13.52;8.98;;;7.80;46.50;;;;;;6211394;23;20020;-76
2022/03/12 00:46:44;;;;;;;12.52;9.13;;;7.80;46.60;;;;;;6183815;23;20441;-76
2022/03/12 00:49:09;;;;;;;11.25;9.00;;;7.70;46.60;;;;;;6213372;23;20017;-77
2022/03/12 00:51:38;;;;;;;12.82;8.18;;;7.70;46.60;;;;;;6211315;23;20023;-76
2022/03/12 00:54:04;;;;;;;13.77;9.02;;;7.70;46.60;;;;;;6210114;23;20017;-76
2022/03/12 00:56:30;;;;;;;14.07;8.65;;;7.70;46.70;;;;;;6210964;23;20088;-76
2022/03/12 00:58:57;;;;;;;13.05;8.82;;;7.70;46.80;;;;;;6211239;23;20017;-76
2022/03/12 01:01:23;;;;;;;11.30;8.73;;;7.70;46.90;;;;;;6211187;23;20028;-76
2022/03/12 01:03:49;;;;;;;13.70;8.77;;;7.70;47.00;;;;;;6183711;23;20420;-76
2022/03/12 01:06:18;;;;;;;15.27;9.02;;;7.70;47.00;;;;;;6185801;23;20020;-76
2022/03/12 01:08:44;;;;;;;12.40;8.90;;;7.70;47.10;;;;;;6209497;23;20540;-76
2022/03/12 01:11:11;;;;;;;10.50;8.75;;;7.70;47.20;;;;;;6185223;23;20069;-76
2022/03/12 01:13:38;;;;;;;13.35;8.32;;;7.70;47.50;;;;;;6184539;23;20020;-76
2022/03/12 01:16:04;;;;;;;11.23;9.00;;;7.60;47.40;;;;;;6210499;23;20048;-76
2022/03/12 01:18:30;;;;;;;12.87;9.00;;;7.60;47.50;;;;;;6209790;23;20016;-76
2022/03/12 01:21:16;;;;;;;15.05;8.77;;;7.60;47.40;;;;;;6210543;23;20228;-76
2022/03/12 01:23:43;;;;;;;11.82;9.05;;;7.60;47.30;;;;;;6211529;23;20012;-76
2022/03/12 01:26:11;;;;;;;12.95;9.32;;;7.60;47.60;;;;;;6185086;23;20380;-76
2022/03/12 01:28:36;;;;;;;;;;;7.60;47.70;;;;;;6183986;23;20027;-76
2022/03/12 01:31:03;;;;;;;13.38;9.02;;;7.60;48.10;;;;;;6210326;23;20431;-76
2022/03/12 01:33:29;;;;;;;14.68;8.80;;;7.50;47.90;;;;;;6184027;23;20017;-75
2022/03/12 01:35:55;;;;;;;12.32;8.82;;;7.50;48.00;;;;;;6183822;23;20013;-76
2022/03/12 01:38:31;;;;;;;12.00;8.80;;;7.50;48.00;;;;;;6184373;23;20021;-76
2022/03/12 01:40:57;;;;;;;12.02;8.85;;;7.50;47.90;;;;;;6210199;23;20063;-76
2022/03/12 01:43:22;;;;;;;11.85;8.90;;;7.50;47.90;;;;;;6210864;23;20241;-76
2022/03/12 01:45:48;;;;;;;14.85;9.18;;;7.50;48.10;;;;;;6184197;23;20043;-77
2022/03/12 01:48:14;;;;;;;13.30;8.95;;;7.40;48.20;;;;;;6209749;23;20021;-76
2022/03/12 01:50:40;;;;;;;12.67;9.23;;;7.40;48.30;;;;;;6210921;23;20044;-74
2022/03/12 01:53:08;;;;;;;13.60;9.05;;;7.40;48.40;;;;;;6211196;23;20020;-75
2022/03/12 01:55:34;;;;;;;12.43;9.60;;;7.40;48.20;;;;;;6211465;23;20020;-75
2022/03/12 01:58:03;;;;;;;13.90;8.98;;;7.40;48.50;;;;;;6181501;23;20514;-76
2022/03/12 02:00:44;;;;;;;12.90;9.20;;;7.40;48.60;;;;;;6211022;23;20021;-76
2022/03/12 02:03:11;;;;;;;13.75;9.07;;;7.40;48.70;;;;;;6211051;23;20021;-76
2022/03/12 02:05:37;;;;;;;12.55;8.45;;;7.40;48.80;;;;;;6183958;23;20023;-75
2022/03/12 02:08:03;;;;;;;14.27;9.18;;;7.40;48.80;;;;;;6181883;23;20020;-76
2022/03/12 02:10:29;;;;;;;13.85;9.05;;;7.40;49.00;;;;;;6211461;23;20024;-76
2022/03/12 02:12:55;;;;;;;11.57;8.57;;;7.30;48.80;;;;;;6183072;23;20621;-76
2022/03/12 02:15:22;;;;;;;11.07;9.20;;;7.30;48.80;;;;;;6211387;23;20078;-76
2022/03/12 02:17:49;;;;;;;;;;;7.30;49.10;;;;;;6183955;23;20058;-76
2022/03/12 02:20:17;;;;;;;12.90;9.20;;;7.30;49.10;;;;;;6182753;23;19951;-75
2022/03/12 02:22:45;;;;;;;12.93;9.25;;;7.30;49.10;;;;;;6210838;23;20013;-78
2022/03/12 02:25:12;;;;;;;12.50;9.18;;;7.20;49.20;;;;;;6183314;23;20044;-77
2022/03/12 02:27:38;;;;;;;13.45;8.93;;;7.20;49.40;;;;;;6210754;23;20017;-76
2022/03/12 02:30:08;;;;;;;12.48;9.43;;;7.20;49.50;;;;;;6210273;23;20302;-77
2022/03/12 02:32:36;;;;;;;12.35;8.88;;;7.20;49.60;;;;;;6210113;23;20091;-77
2022/03/12 02:35:02;;;;;;;10.98;8.30;;;7.20;49.70;;;;;;6182463;23;20016;-77
2022/03/12 02:37:33;;;;;;;14.25;9.02;;;7.20;49.50;;;;;;6210927;23;20380;-77
2022/03/12 02:40:01;;;;;;;13.77;9.25;;;7.10;49.50;;;;;;6209692;23;20024;-76
2022/03/12 02:42:28;;;;;;;12.90;9.10;;;7.20;49.50;;;;;;6211961;23;20016;-76
2022/03/12 02:44:54;;;;;;;13.27;9.02;;;7.10;49.70;;;;;;6209875;23;20021;-76
2022/03/12 02:47:22;;;;;;;10.93;8.75;;;7.10;50.20;;;;;;6209197;23;20437;-77
2022/03/12 02:49:50;;;;;;;;;;;7.10;50.20;;;;;;6211158;23;20039;-77
2022/03/12 02:52:16;;;;;;;12.73;8.95;;;7.10;49.90;;;;;;6183914;23;20386;-77
2022/03/12 02:54:44;;;;;;;13.82;8.88;;;7.10;49.90;;;;;;6182550;23;20067;-77
2022/03/12 02:57:10;;;;;;;14.20;9.38;;;7.10;49.80;;;;;;6210320;23;20091;-77
2022/03/12 02:59:37;;;;;;;11.32;9.50;;;7.10;50.10;;;;;;6184042;23;20078;-77
2022/03/12 03:02:07;;;;;;;11.35;9.25;;;7.10;50.00;;;;;;6208916;23;20286;-76
2022/03/12 03:04:34;;;;;;;11.40;9.07;;;7.10;49.80;;;;;;6210738;23;20051;-76
2022/03/12 03:07:00;;;;;;;12.52;9.13;;;7.10;49.90;;;;;;6210492;23;20013;-76
2022/03/12 03:09:26;;;;;;;10.48;8.82;;;7.10;50.20;;;;;;6209905;23;20017;-77
2022/03/12 03:11:53;;;;;;;14.13;9.60;;;7.10;50.20;;;;;;6209091;23;20023;-77
2022/03/12 03:14:19;;;;;;;17.10;9.27;;;7.10;50.30;;;;;;6209882;23;20023;-77
2022/03/12 03:16:47;;;;;;;13.85;9.18;;;7.10;50.20;;;;;;6183018;23;20048;-77
2022/03/12 03:19:14;;;;;;;12.50;9.63;;;7.10;50.10;;;;;;6210449;23;20016;-76
2022/03/12 03:21:39;;;;;;;12.82;9.10;;;7.10;50.20;;;;;;6210578;23;20008;-77
2022/03/12 03:24:05;;;;;;;13.35;9.43;;;7.00;51.00;;;;;;6209349;23;20015;-77
2022/03/12 03:26:49;;;;;;;11.07;8.90;;;7.00;50.20;;;;;;6183650;23;20325;-77
2022/03/12 03:29:15;;;;;;;13.85;9.23;;;7.00;50.10;;;;;;6183491;23;20020;-77
2022/03/12 03:31:41;;;;;;;12.85;9.20;;;7.00;50.10;;;;;;6184213;23;20020;-76
2022/03/12 03:34:07;;;;;;;13.07;9.18;;;7.00;50.30;;;;;;6210347;23;20098;-77
2022/03/12 03:36:33;;;;;;;13.68;9.38;;;7.00;50.30;;;;;;6210720;23;20449;-77
2022/03/12 03:38:58;;;;;;;12.43;8.40;;;7.00;50.40;;;;;;6183552;23;20025;-76
2022/03/12 03:41:25;;;;;;;13.90;9.73;;;7.00;50.40;;;;;;6210651;23;20108;-77
2022/03/12 03:43:52;;;;;;;12.07;9.07;;;7.00;50.30;;;;;;6209575;23;20023;-78
2022/03/12 03:46:22;;;;;;;13.02;9.40;;;6.90;50.30;;;;;;6184343;23;20092;-77
2022/03/12 03:48:51;;;;;;;13.85;8.82;;;6.90;50.60;;;;;;6210563;23;20017;-77
2022/03/12 03:51:18;;;;;;;13.25;9.25;;;6.90;50.80;;;;;;6210054;23;20017;-77
2022/03/12 03:53:43;;;;;;;13.27;10.15;;;6.90;50.60;;;;;;6183650;23;20326;-77
2022/03/12 03:56:10;;;;;;;12.27;9.15;;;6.90;50.70;;;;;;6210817;23;20023;-77
2022/03/12 03:58:36;;;;;;;12.38;9.35;;;6.80;50.60;;;;;;6209396;23;20031;-77
2022/03/12 04:01:11;;;;;;;11.43;9.10;;;6.80;50.70;;;;;;6209673;23;20325;-77
2022/03/12 04:03:38;;;;;;;11.70;9.52;;;6.80;50.50;;;;;;6182597;23;20017;-77
2022/03/12 04:06:05;;;;;;;14.57;9.25;;;6.80;50.70;;;;;;6209726;23;20023;-77
2022/03/12 04:08:32;;;;;;;13.27;9.57;;;6.80;50.80;;;;;;6183807;23;20021;-76
2022/03/12 04:10:58;;;;;;;12.27;9.23;;;6.80;50.70;;;;;;6210799;23;20799;-77
2022/03/12 04:13:24;;;;;;;12.80;8.80;;;6.70;50.70;;;;;;6185041;23;20048;-77
2022/03/12 04:15:51;;;;;;;13.00;9.25;;;6.70;50.90;;;;;;6212064;23;20047;-77
2022/03/12 04:18:18;;;;;;;13.33;9.67;;;6.70;51.00;;;;;;6211674;23;20024;-76
2022/03/12 04:20:46;;;;;;;11.40;9.18;;;6.70;50.80;;;;;;6211419;23;20020;-77
2022/03/12 04:23:12;;;;;;;16.98;9.52;;;6.70;50.90;;;;;;6212598;23;20313;-76
2022/03/12 04:25:39;;;;;;;12.35;9.30;;;6.70;51.00;;;;;;6211053;23;20024;-77
2022/03/12 04:28:09;;;;;;;12.82;9.13;;;6.60;50.90;;;;;;6184156;23;20020;-77
2022/03/12 04:30:35;;;;;;;14.25;9.60;;;6.60;51.00;;;;;;6212124;23;20437;-76
2022/03/12 04:33:04;;;;;;;14.13;10.07;;;6.60;51.00;;;;;;6184708;23;20016;-77
2022/03/12 04:35:32;;;;;;;13.20;9.15;;;6.60;51.00;;;;;;6212683;23;20032;-77
2022/03/12 04:37:58;;;;;;;12.60;8.55;;;6.50;51.20;;;;;;6210738;23;20082;-77
2022/03/12 04:40:26;;;;;;;12.50;9.15;;;6.50;51.10;;;;;;6210954;23;20012;-77
2022/03/12 04:42:52;;;;;;;12.20;9.07;;;6.50;51.30;;;;;;6184562;23;20112;-77
2022/03/12 04:45:20;;;;;;;10.68;8.75;;;6.50;51.40;;;;;;6185126;23;20024;-77
2022/03/12 04:47:48;;;;;;;12.02;9.35;;;6.50;51.40;;;;;;6210733;23;20021;-77
2022/03/12 04:50:16;;;;;;;13.63;9.13;;;6.50;51.20;;;;;;6212188;23;20346;-77
2022/03/12 04:52:42;;;;;;;;;;;6.40;51.30;;;;;;6212281;23;20024;-77
2022/03/12 04:55:13;;;;;;;11.85;8.98;;;6.40;51.40;;;;;;6184056;23;19926;-77
2022/03/12 04:57:40;;;;;;;12.63;8.90;;;6.40;51.30;;;;;;6184563;23;20017;-77
2022/03/12 05:00:09;;;;;;;12.30;8.97;;;6.40;51.40;;;;;;6183603;23;20370;-77
2022/03/12 05:02:35;;;;;;;11.23;8.57;;;6.30;51.40;;;;;;6184051;23;20012;-77
2022/03/12 05:05:02;;;;;;;14.88;9.35;;;6.30;51.60;;;;;;6210734;23;20016;-76
2022/03/12 05:07:28;;;;;;;12.55;8.77;;;6.30;51.60;;;;;;6184424;23;20021;-77
2022/03/12 05:09:57;;;;;;;13.30;9.00;;;6.30;51.70;;;;;;6210039;23;20441;-77
2022/03/12 05:12:31;;;;;;;11.50;8.68;;;6.30;51.80;;;;;;6212045;23;20355;-77
2022/03/12 05:15:00;;;;;;;14.18;9.57;;;6.20;51.80;;;;;;6208223;23;20017;-77
2022/03/12 05:17:28;;;;;;;14.02;9.20;;;6.20;51.70;;;;;;6211006;23;20456;-77
2022/03/12 05:19:56;;;;;;;;;;;6.20;51.70;;;;;;6184852;23;20519;-77
2022/03/12 05:22:22;;;;;;;14.80;8.65;;;6.10;51.80;;;;;;6210611;23;19916;-77
2022/03/12 05:24:47;;;;;;;14.10;9.45;;;6.10;51.80;;;;;;6184698;23;20024;-77
2022/03/12 05:27:15;;;;;;;11.88;9.10;;;6.10;51.90;;;;;;6211637;23;20023;-76
2022/03/12 05:29:41;;;;;;;11.23;9.18;;;6.10;51.90;;;;;;6211103;23;20012;-77
2022/03/12 05:32:11;;;;;;;12.80;8.77;;;6.10;51.90;;;;;;6210807;23;20035;-77
2022/03/12 05:34:36;;;;;;;11.20;8.90;;;6.10;52.00;;;;;;6211910;23;20027;-77
2022/03/12 05:37:08;;;;;;;13.73;9.63;;;6.00;52.20;;;;;;6183931;23;20025;-76
2022/03/12 05:39:35;;;;;;;12.25;8.98;;;6.00;52.20;;;;;;6211011;23;20489;-77
2022/03/12 05:42:05;;;;;;;14.27;9.35;;;6.00;52.20;;;;;;6207783;23;20024;-77
2022/03/12 05:44:32;;;;;;;13.43;8.88;;;6.00;52.40;;;;;;6211601;23;20044;-76
2022/03/12 05:46:57;;;;;;;12.38;8.63;;;6.00;52.20;;;;;;6210233;23;20445;-77
2022/03/12 05:49:23;;;;;;;11.18;8.40;;;5.90;52.20;;;;;;6210403;23;20116;-77
2022/03/12 05:51:49;;;;;;;10.65;8.30;;;5.90;52.30;;;;;;6184001;23;20035;-76
2022/03/12 05:54:14;;;;;;;13.00;8.55;;;5.90;52.20;;;;;;6211531;23;20086;-77
2022/03/12 05:56:40;;;;;;;14.82;8.75;;;5.90;52.10;;;;;;6182609;23;20012;-76
2022/03/12 05:59:07;;;;;;;13.63;9.27;;;5.90;52.20;;;;;;6210968;23;20020;-76
2022/03/12 06:01:33;;;;;;;14.27;8.80;;;5.90;52.10;;;;;;6210981;23;20013;-76
2022/03/12 06:04:00;;;;;;;14.43;8.77;;;5.90;52.10;;;;;;6209186;23;20021;-76
2022/03/12 06:06:29;;;;;;;13.60;8.55;;;6.00;52.00;;;;;;6211707;23;20025;-76
2022/03/12 06:08:58;;;;;;;12.60;8.25;;;6.00;52.30;;;;;;6210330;23;20016;-76
2022/03/12 06:11:27;;;;;;;10.55;8.65;;;6.00;52.40;;;;;;6210120;23;20024;-76
2022/03/12 06:14:00;;;;;;;10.98;8.10;;;6.00;52.30;;;;;;6183231;23;20032;-76
2022/03/12 06:16:26;;;;;;;11.15;8.70;;;6.10;52.30;;;;;;6211669;23;20024;-76
2022/03/12 06:18:52;;;;;;;13.48;8.25;;;6.10;52.20;;;;;;6209182;23;20491;-76
2022/03/12 06:21:19;;;;;;;12.23;8.15;;;6.10;52.10;;;;;;6184854;23;20023;-76
2022/03/12 06:23:45;;;;;;;13.48;8.77;;;6.10;52.10;;;;;;6209980;23;20016;-76
2022/03/12 06:26:14;;;;;;;13.30;8.45;;;6.10;52.10;;;;;;6211139;23;20013;-76
2022/03/12 06:28:44;;;;;;;16.05;8.60;;;6.20;52.00;;;;;;6184660;23;20020;-76
2022/03/12 06:31:12;;;;;;;10.75;8.95;;;6.20;51.90;;;;;;6210943;23;20066;-76
2022/03/12 06:33:40;;;;;;;12.60;8.38;;;6.30;52.00;;;;;;6182403;23;20099;-78
2022/03/12 06:36:08;;;;;;;11.52;8.20;;;6.30;51.70;;;;;;6183949;23;20366;-76
2022/03/12 06:38:35;;;;;;;11.90;8.88;;;6.30;51.70;;;;;;6183214;23;20048;-76
2022/03/12 06:41:01;;;;;;;11.98;8.70;;;6.30;51.80;;;;;;6210178;23;20047;-77
2022/03/12 06:43:28;;;;;;;12.30;8.88;;;6.30;51.70;;;;;;6211309;23;20395;-78
2022/03/12 06:45:59;;;;;;;12.35;8.05;;;6.30;51.50;;;;;;6209358;23;20349;-78
2022/03/12 06:48:25;;;;;;;10.90;8.32;;;6.40;51.50;;;;;;6208851;23;20052;-78
2022/03/12 06:50:52;;;;;;;12.30;8.98;;;6.40;51.30;;;;;;6210516;23;20012;-76
2022/03/12 06:53:17;;;;;;;11.85;8.73;;;6.40;51.50;;;;;;6209427;23;20012;-84
2022/03/12 06:55:43;;;;;;;13.02;9.20;;;6.40;51.50;;;;;;6210224;23;20021;-78
2022/03/12 06:58:09;;;;;;;13.55;8.73;;;6.40;51.30;;;;;;6206653;23;20344;-78
2022/03/12 07:00:35;;;;;;;11.60;9.27;;;6.50;51.30;;;;;;6181856;23;20083;-77
2022/03/12 07:03:01;;;;;;;12.98;8.95;;;6.50;51.20;;;;;;6210228;23;20337;-78
2022/03/12 07:05:27;;;;;;;11.82;8.50;;;6.50;51.30;;;;;;6210367;23;20038;-79
2022/03/12 07:07:53;;;;;;;11.80;8.95;;;6.50;51.20;;;;;;6209201;23;20020;-78
2022/03/12 07:10:19;;;;;;;12.00;8.55;;;6.50;51.20;;;;;;6210220;23;20028;-79
2022/03/12 07:12:46;;;;;;;12.00;8.80;;;6.60;51.20;;;;;;6208513;23;20023;-85
2022/03/12 07:15:13;;;;;;;;;;;6.60;51.50;;;;;;6181167;23;20083;-77
2022/03/12 07:17:40;;;;;;;12.90;8.85;;;6.60;51.60;;;;;;6210989;23;19916;-77
2022/03/12 07:20:07;;;;;;;12.75;8.90;;;6.70;51.90;;;;;;6208685;23;20091;-77
2022/03/12 07:22:33;;;;;;;13.50;8.38;;;6.70;52.30;;;;;;6209120;23;20019;-77
2022/03/12 07:24:59;;;;;;;13.85;9.00;;;6.80;51.90;;;;;;6210295;23;20479;-77
2022/03/12 07:27:25;;;;;;;12.70;8.18;;;6.80;51.60;;;;;;6182066;23;20028;-77
2022/03/12 07:29:52;;;;;;;14.27;8.80;;;6.90;51.50;;;;;;6208756;23;20020;-77
2022/03/12 07:32:17;;;;;;;12.23;8.75;;;6.90;51.70;;;;;;6209183;23;20012;-77
2022/03/12 07:34:43;;;;;;;11.02;8.75;;;7.00;51.50;;;;;;6180095;23;20067;-77
2022/03/12 07:37:11;;;;;;;13.77;9.02;;;7.00;51.70;;;;;;6209470;23;20016;-77
2022/03/12 07:39:37;;;;;;;12.38;9.00;;;7.00;51.60;;;;;;6210878;23;20016;-77
2022/03/12 07:42:04;;;;;;;13.35;9.05;;;7.00;51.70;;;;;;6207906;23;20044;-77
2022/03/12 07:44:30;;;;;;;10.93;8.70;;;7.00;51.50;;;;;;6182950;23;20504;-77
2022/03/12 07:46:57;;;;;;;12.70;9.02;;;7.10;51.60;;;;;;6209640;23;20131;-78
2022/03/12 07:49:24;;;;;;;12.68;8.63;;;7.00;51.60;;;;;;6182332;23;20426;-77
2022/03/12 07:51:50;;;;;;;11.73;8.52;;;7.10;51.70;;;;;;6181656;23;20095;-77
2022/03/12 07:54:16;;;;;;;12.60;9.32;;;7.10;51.60;;;;;;6210479;23;20044;-77
2022/03/12 07:56:43;;;;;;;12.60;9.18;;;7.10;51.70;;;;;;6181383;23;20020;-77
2022/03/12 07:59:10;;;;;;;16.02;9.55;;;7.30;51.90;;;;;;6209575;23;20020;-77
2022/03/12 08:01:36;;;;;;;16.58;9.50;;;7.30;51.80;;;;;;6183114;23;20095;-77
2022/03/12 08:04:02;;;;;;;12.68;9.60;;;7.40;51.70;;;;;;6209269;23;20059;-77
2022/03/12 08:06:28;;;;;;;13.77;9.35;;;7.50;51.70;;;;;;6183141;23;20016;-77
2022/03/12 08:08:55;;;;;;;14.57;9.30;;;7.60;51.70;;;;;;6207318;23;20021;-77
2022/03/12 08:11:31;;;;;;;12.20;9.52;;;7.70;51.60;;;;;;6208858;23;20040;-77
2022/03/12 08:14:05;;;;;;;12.20;9.07;;;7.80;52.10;;;;;;6209128;23;20348;-77
2022/03/12 08:16:33;;;;;;;13.52;9.20;;;7.80;51.40;;;;;;6208631;23;20499;-77
2022/03/12 08:19:05;;;;;;;;;;;8.00;51.50;;;;;;6183575;23;20032;-77
2022/03/12 08:21:32;;;;;;;15.27;9.38;;;8.00;51.60;;;;;;6210061;23;20399;-77
2022/03/12 08:23:58;;;;;;;13.93;8.77;;;8.10;51.60;;;;;;6208536;23;20012;-77
2022/03/12 08:26:24;;;;;;;12.38;9.00;;;8.20;51.50;;;;;;6210204;23;20345;-77
2022/03/12 08:28:50;;;;;;;14.20;10.13;;;8.30;51.00;;;;;;6208143;23;20047;-77
2022/03/12 08:31:16;;;;;;;16.90;9.80;;;8.30;50.90;;;;;;6209233;23;20412;-77
2022/03/12 08:33:42;;;;;;;13.90;9.65;;;8.40;51.00;;;;;;6209905;23;20024;-77
2022/03/12 08:36:08;;;;;;;12.70;9.88;;;8.40;51.10;;;;;;6209501;23;20374;-77
2022/03/12 08:38:35;;;;;;;13.90;10.40;;;8.50;51.30;;;;;;6208488;23;20020;-77
2022/03/12 08:41:05;;;;;;;17.00;9.85;;;8.60;51.50;;;;;;6209248;23;20089;-74
2022/03/12 08:43:32;;;;;;;13.48;10.23;;;8.60;51.50;;;;;;6182137;23;20050;-77
2022/03/12 08:46:01;;;;;;;13.07;9.43;;;8.70;51.30;;;;;;6207414;23;20012;-75
2022/03/12 08:48:27;;;;;;;14.43;9.80;;;8.80;51.40;;;;;;6184412;23;20025;-78
2022/03/12 08:50:53;;;;;;;14.98;9.80;;;8.90;51.70;;;;;;6184777;23;20074;-77
2022/03/12 08:53:21;;;;;;;13.65;10.20;;;9.00;53.10;;;;;;6211339;23;20020;-75
2022/03/12 08:55:49;;;;;;;14.90;9.93;;;9.20;53.50;;;;;;6186458;23;20052;-77
2022/03/12 08:58:16;;;;;;;16.05;9.75;;;9.30;53.20;;;;;;6186062;23;20093;-75
2022/03/12 09:00:42;;;;;;;14.45;10.35;;;9.50;52.50;;;;;;6212968;23;20143;-75
2022/03/12 09:03:09;;;;;;;16.80;11.32;;;9.50;52.20;;;;;;6187594;23;20066;-75
2022/03/12 09:05:35;;;;;;;13.25;10.07;;;9.60;52.10;;;;;;6187726;23;20098;-75
2022/03/12 09:08:01;;;;;;;14.63;10.25;;;9.70;52.40;;;;;;6212634;23;20437;-77
2022/03/12 09:10:27;;;;;;;14.35;11.15;;;9.70;52.50;;;;;;6213869;23;20066;-76
2022/03/12 09:12:53;;;;;;;13.60;10.20;;;9.80;53.30;;;;;;6185387;23;20067;-76
2022/03/12 09:15:22;;;;;;;14.52;10.52;;;9.80;52.90;;;;;;6181875;23;20052;-77
2022/03/12 09:17:48;;;;;;;17.00;10.65;;;9.90;53.30;;;;;;6211750;23;20024;-81
2022/03/12 09:20:14;;;;;;;14.82;10.60;;;10.00;53.40;;;;;;6212008;23;20021;-83
2022/03/12 09:22:41;;;;;;;15.68;10.80;;;10.00;53.40;;;;;;6213633;23;20468;-76
2022/03/12 09:25:11;;;;;;;19.38;10.10;;;10.10;53.60;;;;;;6186057;23;20035;-76
2022/03/12 09:27:37;;;;;;;14.27;10.32;;;10.20;54.00;;;;;;6186296;23;20071;-76
2022/03/12 09:30:04;;;;;;;13.18;10.73;;;10.20;54.30;;;;;;6211496;23;20572;-76
2022/03/12 09:32:29;;;;;;;14.00;10.43;;;10.30;54.60;;;;;;6185393;23;20020;-75
2022/03/12 09:34:55;;;;;;;15.65;10.70;;;10.40;54.80;;;;;;6183508;23;20065;-77
2022/03/12 09:37:21;;;;;;;16.88;11.13;;;10.50;55.10;;;;;;6212821;23;20029;-80
2022/03/12 09:39:47;;;;;;;14.45;10.65;;;10.60;55.10;;;;;;6185792;23;20028;-82
2022/03/12 09:42:12;;;;;;;12.98;10.38;;;10.70;55.00;;;;;;6212965;23;20083;-79
2022/03/12 09:44:38;;;;;;;14.75;11.38;;;10.70;54.80;;;;;;6186727;23;20452;-78
2022/03/12 09:47:04;;;;;;;15.13;11.25;;;10.80;55.20;;;;;;6185021;23;20074;-78
2022/03/12 09:49:33;;;;;;;14.45;10.63;;;10.80;54.70;;;;;;6209438;23;20024;-78
2022/03/12 09:51:59;;;;;;;17.10;11.18;;;10.90;54.70;;;;;;6185885;23;20016;-78
2022/03/12 09:54:28;;;;;;;15.55;11.07;;;10.90;54.90;;;;;;6184766;23;20023;-78
2022/03/12 09:56:54;;;;;;;13.77;11.00;;;10.90;55.10;;;;;;6211103;23;20017;-79
2022/03/12 09:59:20;;;;;;;14.23;11.05;;;11.00;55.30;;;;;;6210906;23;20062;-78
2022/03/12 10:01:46;;;;;;;14.25;10.80;;;11.10;55.60;;;;;;6184635;23;20456;-76
2022/03/12 10:04:11;;;;;;;13.43;10.55;;;11.20;55.80;;;;;;6185548;23;20013;-76
2022/03/12 10:06:37;;;;;;;13.80;11.13;;;11.30;55.80;;;;;;6213346;23;20384;-77
2022/03/12 10:09:04;;;;;;;13.35;10.85;;;11.40;55.90;;;;;;6212496;23;20047;-77
2022/03/12 10:11:30;;;;;;;16.05;10.85;;;11.50;56.10;;;;;;6214253;23;20444;-77
2022/03/12 10:13:56;;;;;;;15.75;10.50;;;11.60;56.90;;;;;;6184953;23;20518;-75
2022/03/12 10:16:22;;;;;;;13.15;10.48;;;11.70;57.70;;;;;;6212243;23;20021;-76
2022/03/12 10:18:47;;;;;;;14.95;10.68;;;11.80;57.80;;;;;;6185756;23;20038;-76
2022/03/12 10:21:14;;;;;;;15.40;10.95;;;11.90;58.10;;;;;;6185977;23;20028;-75
2022/03/12 10:23:40;;;;;;;15.20;11.25;;;12.00;57.90;;;;;;6185474;23;20070;-75
2022/03/12 10:26:05;;;;;;;13.98;10.70;;;12.10;58.20;;;;;;6184955;23;20449;-75
2022/03/12 10:28:36;;;;;;;15.45;11.15;;;12.10;58.30;;;;;;6185276;23;20024;-84
2022/03/12 10:31:07;;;;;;;15.52;11.13;;;12.20;58.30;;;;;;6210772;23;20318;-78
2022/03/12 10:33:33;;;;;;;16.00;11.20;;;12.30;58.60;;;;;;6185901;23;20017;-78
2022/03/12 10:36:16;;;;;;;15.98;10.82;;;12.40;59.20;;;;;;6185132;23;20361;-77
2022/03/12 10:38:45;;;;;;;16.42;11.30;;;12.50;59.50;;;;;;6183203;23;20078;-76
2022/03/12 10:41:11;;;;;;;15.02;11.35;;;12.60;59.60;;;;;;6211425;23;20024;-75
2022/03/12 10:43:45;;;;;;;13.63;11.02;;;12.60;59.60;;;;;;6185215;23;20023;-75
2022/03/12 10:46:21;;;;;;;15.50;11.40;;;12.70;59.60;;;;;;6184604;23;20025;-76
2022/03/12 10:48:56;;;;;;;14.00;11.50;;;12.80;59.60;;;;;;6185000;23;20076;-77
2022/03/12 10:51:32;;;;;;;14.05;11.00;;;12.90;59.90;;;;;;6185739;23;20023;-76
2022/03/12 10:54:05;;;;;;;13.25;10.63;;;13.00;60.20;;;;;;6184519;23;20016;-78
2022/03/12 10:56:51;;;;;;;16.77;11.18;;;13.10;60.60;;;;;;6207503;23;20024;-78
2022/03/12 10:59:22;;;;;;;15.32;11.18;;;13.10;61.20;;;;;;6209268;23;20433;-77
2022/03/12 11:01:51;;;;;;;13.43;10.80;;;13.20;61.40;;;;;;6184150;23;20017;-78
2022/03/12 11:04:23;;;;;;;12.73;10.30;;;13.20;62.10;;;;;;6210143;23;20021;-77
2022/03/12 11:06:51;;;;;;;12.60;9.85;;;13.30;63.10;;;;;;6206973;23;20056;-78
2022/03/12 11:09:18;;;;;;;11.82;9.93;;;13.40;63.50;;;;;;6210845;23;20071;-78
2022/03/12 11:11:45;;;;;;;;;;;13.40;64.10;;;;;;6210703;23;20016;-78
2022/03/12 11:14:18;;;;;;;16.30;9.93;;;13.50;64.10;;;;;;6182391;23;19939;-78
2022/03/12 11:16:50;;;;;;;16.02;9.75;;;13.50;64.90;;;;;;6182674;23;20087;-78
2022/03/12 11:19:17;;;;;;;13.90;10.35;;;13.50;65.70;;;;;;6184159;23;20016;-78
2022/03/12 11:21:51;;;;;;;13.00;10.07;;;13.60;65.90;;;;;;6182277;23;20027;-78
2022/03/12 11:24:24;;;;;;;13.27;9.77;;;13.60;66.00;;;;;;6183953;23;20111;-78
2022/03/12 11:26:54;;;;;;;14.75;10.50;;;13.60;66.20;;;;;;6209392;23;20023;-77
2022/03/12 11:29:23;;;;;;;13.88;9.80;;;13.70;66.90;;;;;;6210704;23;20024;-78
2022/03/12 11:32:05;;;;;;;14.07;10.30;;;13.70;67.40;;;;;;6209828;23;20028;-81
2022/03/12 11:34:39;;;;;;;12.73;9.82;;;13.80;67.20;;;;;;6208450;23;20572;-75
2022/03/12 11:37:07;;;;;;;13.18;10.65;;;13.80;67.50;;;;;;6210776;23;20016;-74
2022/03/12 11:39:37;;;;;;;13.65;10.57;;;13.80;66.90;;;;;;6185554;23;20448;-76
2022/03/12 11:42:10;;;;;;;12.40;10.48;;;13.80;66.70;;;;;;6211456;23;20526;-75
2022/03/12 11:44:36;;;;;;;13.38;10.25;;;13.90;65.90;;;;;;6210682;23;20471;-74
2022/03/12 11:47:03;;;;;;;14.85;11.00;;;13.90;65.90;;;;;;6211744;23;20017;-75
2022/03/12 11:49:32;;;;;;;12.93;10.25;;;14.00;66.30;;;;;;6211938;23;20059;-75
2022/03/12 11:51:59;;;;;;;13.85;11.38;;;14.00;66.10;;;;;;6184396;23;20024;-75
2022/03/12 11:54:26;;;;;;;13.25;11.48;;;14.00;65.70;;;;;;6212308;23;20024;-78
2022/03/12 11:56:52;;;;;;;15.00;10.93;;;14.10;66.40;;;;;;6182952;23;20040;-78
2022/03/12 11:59:19;;;;;;;12.20;10.30;;;14.10;66.10;;;;;;6184113;23;20021;-79
2022/03/12 12:02:02;;;;;;;14.40;10.27;;;14.20;65.20;;;;;;6213534;23;20050;-78
2022/03/12 12:04:32;;;;;;;11.77;10.45;;;14.10;64.60;;;;;;6213287;23;20302;-77
2022/03/12 12:07:01;;;;;;;11.60;9.43;;;14.10;64.60;;;;;;6184391;23;20016;-78
2022/03/12 12:09:28;;;;;;;12.93;10.15;;;14.10;64.70;;;;;;6211185;23;20055;-79
2022/03/12 12:11:54;;;;;;;12.45;10.45;;;14.10;65.30;;;;;;6210976;23;20020;-78
2022/03/12 12:14:20;;;;;;;12.18;9.82;;;14.20;66.00;;;;;;6184402;23;20021;-76
2022/03/12 12:16:47;;;;;;;13.55;10.40;;;14.20;66.30;;;;;;6183857;23;20016;-76
2022/03/12 12:19:13;;;;;;;13.23;10.40;;;14.30;66.90;;;;;;6211692;23;20025;-76
2022/03/12 12:21:39;;;;;;;14.07;10.65;;;14.30;65.70;;;;;;6212263;23;20019;-77
2022/03/12 12:24:28;;;;;;;14.25;9.90;;;14.40;65.40;;;;;;6183988;23;20100;-82
2022/03/12 12:27:00;;;;;;;14.98;9.68;;;14.40;65.10;;;;;;6211080;23;20020;-80
2022/03/12 12:29:41;;;;;;;12.45;9.57;;;14.50;64.50;;;;;;6211567;23;20392;-82
2022/03/12 12:32:08;;;;;;;13.73;10.38;;;14.50;64.30;;;;;;6185345;23;20472;-77
2022/03/12 12:34:35;;;;;;;12.68;10.32;;;14.40;64.00;;;;;;6186104;23;20013;-77
2022/03/12 12:37:02;;;;;;;12.88;10.70;;;14.40;63.90;;;;;;6211950;23;20054;-77
2022/03/12 12:39:28;;;;;;;12.23;9.93;;;14.30;64.20;;;;;;6213757;23;20302;-78
2022/03/12 12:41:55;;;;;;;13.32;9.93;;;14.20;64.50;;;;;;6213280;23;20032;-77
2022/03/12 12:44:42;;;;;;;16.10;12.43;;;14.20;65.00;;;;;;6186126;23;20016;-77
2022/03/12 12:47:10;;;;;;;13.82;9.90;;;14.30;65.20;;;;;;6213806;23;20043;-78